sensor_id;sensor_type;location;lat;lon;timestamp;pressure;altitude;pressure_sealevel;temperature;humidity
49367;BME280;35245;52.026;8.540;2024-03-23T00:52:00;52350.91;;;-145.42;100.00
49367;BME280;35245;52.026;8.540;2024-03-23T00:54:26;52277.53;;;-145.42;100.00
49367;BME280;35245;52.026;8.540;2024-03-23T00:56:53;52271.59;;;-145.42;100.00
49367;BME280;35245;52.026;8.540;2024-03-23T00:59:19;52354.88;;;-145.42;100.00
49367;BME280;35245;52.026;8.540;2024-03-23T01:01:48;52374.69;;;-145.42;100.00
49367;BME280;35245;52.026;8.540;2024-03-23T01:04:14;52313.22;;;-145.42;100.00
49367;BME280;35245;52.026;8.540;2024-03-23T01:06:41;52275.56;;;-145.42;100.00
49367;BME280;35245;52.026;8.540;2024-03-23T01:09:08;52235.91;;;-145.42;100.00
49367;BME280;35245;52.026;8.540;2024-03-23T01:11:36;52350.91;;;-145.42;100.00
49367;BME280;35245;52.026;8.540;2024-03-23T01:14:02;52529.38;;;-145.42;100.00
49367;BME280;35245;52.026;8.540;2024-03-23T01:16:30;52481.78;;;-145.42;100.00
49367;BME280;35245;52.026;8.540;2024-03-23T01:18:56;52493.66;;;-145.42;100.00
49367;BME280;35245;52.026;8.540;2024-03-23T01:21:23;52321.16;;;-145.42;100.00
49367;BME280;35245;52.026;8.540;2024-03-23T01:23:49;52271.59;;;-145.42;100.00
49367;BME280;35245;52.026;8.540;2024-03-23T01:26:17;52390.56;;;-145.42;100.00
49367;BME280;35245;52.026;8.540;2024-03-23T01:28:44;52275.56;;;-145.42;100.00
49367;BME280;35245;52.026;8.540;2024-03-23T01:31:11;52261.66;;;-145.42;100.00
49367;BME280;35245;52.026;8.540;2024-03-23T01:33:37;52148.66;;;-145.42;100.00
49367;BME280;35245;52.026;8.540;2024-03-23T01:36:05;52227.97;;;-145.42;100.00
49367;BME280;35245;52.026;8.540;2024-03-23T01:38:31;52426.25;;;-145.42;100.00
49367;BME280;35245;52.026;8.540;2024-03-23T01:40:58;52465.91;;;-145.42;100.00
49367;BME280;35245;52.026;8.540;2024-03-23T01:43:25;52424.25;;;-145.42;100.00
49367;BME280;35245;52.026;8.540;2024-03-23T01:45:53;52475.81;;;-145.42;100.00
49367;BME280;35245;52.026;8.540;2024-03-23T01:48:20;52436.16;;;-145.42;100.00
49367;BME280;35245;52.026;8.540;2024-03-23T01:50:47;52483.75;;;-145.42;100.00
49367;BME280;35245;52.026;8.540;2024-03-23T01:53:14;52352.88;;;-145.42;100.00
49367;BME280;35245;52.026;8.540;2024-03-23T01:55:43;52442.13;;;-145.42;100.00
49367;BME280;35245;52.026;8.540;2024-03-23T01:58:09;52438.16;;;-145.42;100.00
49367;BME280;35245;52.026;8.540;2024-03-23T02:00:38;52440.13;;;-145.42;100.00
49367;BME280;35245;52.026;8.540;2024-03-23T02:03:22;52588.84;;;-145.42;100.00
49367;BME280;35245;52.026;8.540;2024-03-23T02:05:50;52713.78;;;-145.42;100.00
49367;BME280;35245;52.026;8.540;2024-03-23T02:08:18;52616.63;;;-145.42;100.00
49367;BME280;35245;52.026;8.540;2024-03-23T02:10:46;52446.06;;;-145.42;100.00
49367;BME280;35245;52.026;8.540;2024-03-23T02:13:14;52422.28;;;-145.42;100.00
49367;BME280;35245;52.026;8.540;2024-03-23T02:15:43;52446.06;;;-145.42;100.00
49367;BME280;35245;52.026;8.540;2024-03-23T02:18:10;52604.72;;;-145.42;100.00
49367;BME280;35245;52.026;8.540;2024-03-23T02:20:38;52527.38;;;-145.42;100.00
49367;BME280;35245;52.026;8.540;2024-03-23T02:23:06;52634.47;;;-145.42;100.00
49367;BME280;35245;52.026;8.540;2024-03-23T02:25:33;52600.75;;;-145.42;100.00
49367;BME280;35245;52.026;8.540;2024-03-23T02:27:59;52626.53;;;-145.42;100.00
49367;BME280;35245;52.026;8.540;2024-03-23T02:30:27;52618.59;;;-145.42;100.00
49367;BME280;35245;52.026;8.540;2024-03-23T02:32:53;52224.00;;;-145.42;100.00
49367;BME280;35245;52.026;8.540;2024-03-23T02:35:20;52152.63;;;-145.42;100.00
49367;BME280;35245;52.026;8.540;2024-03-23T02:37:46;51881.00;;;-145.42;100.00
49367;BME280;35245;52.026;8.540;2024-03-23T02:40:17;51847.28;;;-145.42;100.00
49367;BME280;35245;52.026;8.540;2024-03-23T02:42:43;51904.78;;;-145.42;100.00
49367;BME280;35245;52.026;8.540;2024-03-23T02:45:10;51908.75;;;-145.42;100.00
49367;BME280;35245;52.026;8.540;2024-03-23T02:47:37;51845.31;;;-145.42;100.00
49367;BME280;35245;52.026;8.540;2024-03-23T02:50:05;51978.13;;;-145.42;100.00
49367;BME280;35245;52.026;8.540;2024-03-23T02:52:31;51946.41;;;-145.42;100.00
49367;BME280;35245;52.026;8.540;2024-03-23T02:54:58;51938.47;;;-145.42;100.00
49367;BME280;35245;52.026;8.540;2024-03-23T02:57:26;51748.16;;;-145.42;100.00
49367;BME280;35245;52.026;8.540;2024-03-23T02:59:53;51639.13;;;-145.42;100.00
49367;BME280;35245;52.026;8.540;2024-03-23T03:02:20;51797.72;;;-145.42;100.00
49367;BME280;35245;52.026;8.540;2024-03-23T03:04:47;51839.34;;;-145.42;100.00
49367;BME280;35245;52.026;8.540;2024-03-23T03:07:14;51752.13;;;-145.42;100.00
49367;BME280;35245;52.026;8.540;2024-03-23T03:09:41;51837.38;;;-145.42;100.00
49367;BME280;35245;52.026;8.540;2024-03-23T03:12:07;51920.63;;;-145.42;100.00
49367;BME280;35245;52.026;8.540;2024-03-23T03:14:36;51948.41;;;-145.42;100.00
49367;BME280;35245;52.026;8.540;2024-03-23T03:17:02;52067.34;;;-145.42;100.00
49367;BME280;35245;52.026;8.540;2024-03-23T03:19:30;52099.09;;;-145.42;100.00
49367;BME280;35245;52.026;8.540;2024-03-23T03:21:56;52166.50;;;-145.42;100.00
49367;BME280;35245;52.026;8.540;2024-03-23T03:24:23;52301.31;;;-145.42;100.00
49367;BME280;35245;52.026;8.540;2024-03-23T03:26:49;52408.41;;;-145.42;100.00
49367;BME280;35245;52.026;8.540;2024-03-23T03:29:17;52444.09;;;-145.42;100.00
49367;BME280;35245;52.026;8.540;2024-03-23T03:31:44;52485.75;;;-145.42;100.00
49367;BME280;35245;52.026;8.540;2024-03-23T03:34:12;52517.47;;;-145.42;100.00
49367;BME280;35245;52.026;8.540;2024-03-23T03:36:38;52424.25;;;-145.42;100.00
49367;BME280;35245;52.026;8.540;2024-03-23T03:39:05;52372.72;;;-145.42;100.00
49367;BME280;35245;52.026;8.540;2024-03-23T03:41:32;52348.91;;;-145.42;100.00
49367;BME280;35245;52.026;8.540;2024-03-23T03:43:59;52265.63;;;-145.42;100.00
49367;BME280;35245;52.026;8.540;2024-03-23T03:46:28;52434.19;;;-145.42;100.00
49367;BME280;35245;52.026;8.540;2024-03-23T03:48:56;52218.06;;;-145.42;100.00
49367;BME280;35245;52.026;8.540;2024-03-23T03:51:22;52321.16;;;-145.42;100.00
49367;BME280;35245;52.026;8.540;2024-03-23T03:53:49;52327.09;;;-145.42;100.00
49367;BME280;35245;52.026;8.540;2024-03-23T03:56:16;52311.25;;;-145.42;100.00
49367;BME280;35245;52.026;8.540;2024-03-23T03:58:43;52384.59;;;-145.42;100.00
49367;BME280;35245;52.026;8.540;2024-03-23T04:01:09;52596.78;;;-145.42;100.00
49367;BME280;35245;52.026;8.540;2024-03-23T04:03:36;52569.03;;;-145.42;100.00
49367;BME280;35245;52.026;8.540;2024-03-23T04:06:04;52789.13;;;-145.42;100.00
49367;BME280;35245;52.026;8.540;2024-03-23T04:08:31;52761.38;;;-145.42;100.00
49367;BME280;35245;52.026;8.540;2024-03-23T04:10:58;52739.56;;;-145.42;100.00
49367;BME280;35245;52.026;8.540;2024-03-23T04:13:24;52695.94;;;-145.42;100.00
49367;BME280;35245;52.026;8.540;2024-03-23T04:15:54;52791.13;;;-145.42;100.00
49367;BME280;35245;52.026;8.540;2024-03-23T04:18:20;52973.56;;;-145.42;100.00
49367;BME280;35245;52.026;8.540;2024-03-23T04:20:48;52945.81;;;-145.42;100.00
49367;BME280;35245;52.026;8.540;2024-03-23T04:23:16;52753.44;;;-145.42;100.00
49367;BME280;35245;52.026;8.540;2024-03-23T04:25:43;52900.19;;;-145.42;100.00
49367;BME280;35245;52.026;8.540;2024-03-23T04:28:10;52860.53;;;-145.42;100.00
49367;BME280;35245;52.026;8.540;2024-03-23T04:30:37;53098.50;;;-145.42;100.00
49367;BME280;35245;52.026;8.540;2024-03-23T04:33:04;53148.09;;;-145.42;100.00
49367;BME280;35245;52.026;8.540;2024-03-23T04:35:31;53158.00;;;-145.42;100.00
49367;BME280;35245;52.026;8.540;2024-03-23T04:37:57;53068.75;;;-145.42;100.00
49367;BME280;35245;52.026;8.540;2024-03-23T04:40:27;53025.13;;;-145.42;100.00
49367;BME280;35245;52.026;8.540;2024-03-23T04:42:54;53110.41;;;-145.42;100.00
49367;BME280;35245;52.026;8.540;2024-03-23T04:45:21;53086.63;;;-145.42;100.00
49367;BME280;35245;52.026;8.540;2024-03-23T04:47:48;53054.88;;;-145.42;100.00
49367;BME280;35245;52.026;8.540;2024-03-23T04:50:15;53150.06;;;-145.42;100.00
49367;BME280;35245;52.026;8.540;2024-03-23T04:52:42;53068.75;;;-145.42;100.00
49367;BME280;35245;52.026;8.540;2024-03-23T04:55:09;53217.50;;;-145.42;100.00
49367;BME280;35245;52.026;8.540;2024-03-23T04:57:36;53052.91;;;-145.42;100.00
49367;BME280;35245;52.026;8.540;2024-03-23T05:00:05;52743.53;;;-145.42;100.00
49367;BME280;35245;52.026;8.540;2024-03-23T05:02:44;52636.44;;;-145.42;100.00
49367;BME280;35245;52.026;8.540;2024-03-23T05:05:12;52739.56;;;-145.42;100.00
49367;BME280;35245;52.026;8.540;2024-03-23T05:07:38;52777.25;;;-145.42;100.00
49367;BME280;35245;52.026;8.540;2024-03-23T05:10:06;52741.53;;;-145.42;100.00
49367;BME280;35245;52.026;8.540;2024-03-23T05:12:37;52743.53;;;-145.42;100.00
49367;BME280;35245;52.026;8.540;2024-03-23T05:15:05;52810.94;;;-145.42;100.00
49367;BME280;35245;52.026;8.540;2024-03-23T05:17:32;52755.44;;;-145.42;100.00
49367;BME280;35245;52.026;8.540;2024-03-23T05:19:59;52805.00;;;-145.42;100.00
49367;BME280;35245;52.026;8.540;2024-03-23T05:22:25;52767.31;;;-145.42;100.00
49367;BME280;35245;52.026;8.540;2024-03-23T05:24:53;52838.72;;;-145.42;100.00
49367;BME280;35245;52.026;8.540;2024-03-23T05:27:19;52850.63;;;-145.42;100.00
49367;BME280;35245;52.026;8.540;2024-03-23T05:29:47;52810.94;;;-145.42;100.00
49367;BME280;35245;52.026;8.540;2024-03-23T05:32:14;52807.00;;;-145.42;100.00
49367;BME280;35245;52.026;8.540;2024-03-23T05:34:41;52666.19;;;-145.42;100.00
49367;BME280;35245;52.026;8.540;2024-03-23T05:37:08;52741.53;;;-145.42;100.00
49367;BME280;35245;52.026;8.540;2024-03-23T05:39:35;52727.66;;;-145.42;100.00
49367;BME280;35245;52.026;8.540;2024-03-23T05:42:01;52739.56;;;-145.42;100.00
49367;BME280;35245;52.026;8.540;2024-03-23T05:44:28;52743.53;;;-145.42;100.00
49367;BME280;35245;52.026;8.540;2024-03-23T05:46:55;52836.72;;;-145.42;100.00
49367;BME280;35245;52.026;8.540;2024-03-23T05:49:23;53056.88;;;-145.42;100.00
49367;BME280;35245;52.026;8.540;2024-03-23T05:51:49;53033.06;;;-145.42;100.00
49367;BME280;35245;52.026;8.540;2024-03-23T05:54:16;53050.91;;;-145.42;100.00
49367;BME280;35245;52.026;8.540;2024-03-23T05:56:42;52975.56;;;-145.42;100.00
49367;BME280;35245;52.026;8.540;2024-03-23T05:59:09;52735.59;;;-145.42;100.00
49367;BME280;35245;52.026;8.540;2024-03-23T06:01:35;52779.22;;;-145.42;100.00
49367;BME280;35245;52.026;8.540;2024-03-23T06:04:04;52733.63;;;-145.42;100.00
49367;BME280;35245;52.026;8.540;2024-03-23T06:06:30;52834.75;;;-145.42;100.00
49367;BME280;35245;52.026;8.540;2024-03-23T06:08:57;52896.22;;;-145.42;100.00
49367;BME280;35245;52.026;8.540;2024-03-23T06:11:23;52850.63;;;-145.42;100.00
49367;BME280;35245;52.026;8.540;2024-03-23T06:13:52;52922.00;;;-145.42;100.00
49367;BME280;35245;52.026;8.540;2024-03-23T06:16:18;52931.94;;;-145.42;100.00
49367;BME280;35245;52.026;8.540;2024-03-23T06:18:49;52880.38;;;-145.42;100.00
49367;BME280;35245;52.026;8.540;2024-03-23T06:21:17;52783.19;;;-145.42;100.00
49367;BME280;35245;52.026;8.540;2024-03-23T06:23:44;52695.94;;;-145.42;100.00
49367;BME280;35245;52.026;8.540;2024-03-23T06:26:17;52735.59;;;-145.42;100.00
49367;BME280;35245;52.026;8.540;2024-03-23T06:28:44;52664.22;;;-145.42;100.00
49367;BME280;35245;52.026;8.540;2024-03-23T06:31:10;52622.56;;;-145.42;100.00
49367;BME280;35245;52.026;8.540;2024-03-23T06:33:37;52678.09;;;-145.42;100.00
49367;BME280;35245;52.026;8.540;2024-03-23T06:36:05;52574.97;;;-145.42;100.00
49367;BME280;35245;52.026;8.540;2024-03-23T06:38:33;52394.53;;;-145.42;100.00
49367;BME280;35245;52.026;8.540;2024-03-23T06:41:02;52549.19;;;-145.42;100.00
49367;BME280;35245;52.026;8.540;2024-03-23T06:43:30;52339.00;;;-145.42;100.00
49367;BME280;35245;52.026;8.540;2024-03-23T06:45:56;52555.13;;;-145.42;100.00
49367;BME280;35245;52.026;8.540;2024-03-23T06:48:23;52648.34;;;-145.42;100.00
49367;BME280;35245;52.026;8.540;2024-03-23T06:50:49;52557.13;;;-145.42;100.00
49367;BME280;35245;52.026;8.540;2024-03-23T06:53:16;52628.50;;;-145.42;100.00
49367;BME280;35245;52.026;8.540;2024-03-23T06:55:51;52703.88;;;-145.42;100.00
49367;BME280;35245;52.026;8.540;2024-03-23T06:58:20;52739.56;;;-145.42;100.00
49367;BME280;35245;52.026;8.540;2024-03-23T07:00:46;52733.63;;;-145.42;100.00
49367;BME280;35245;52.026;8.540;2024-03-23T07:03:13;52699.91;;;-145.42;100.00
49367;BME280;35245;52.026;8.540;2024-03-23T07:05:39;52688.00;;;-145.42;100.00
49367;BME280;35245;52.026;8.540;2024-03-23T07:08:07;52598.75;;;-145.42;100.00
49367;BME280;35245;52.026;8.540;2024-03-23T07:10:33;52656.28;;;-145.42;100.00
49367;BME280;35245;52.026;8.540;2024-03-23T07:13:02;52699.91;;;-145.42;100.00
49367;BME280;35245;52.026;8.540;2024-03-23T07:15:28;52672.13;;;-145.42;100.00
49367;BME280;35245;52.026;8.540;2024-03-23T07:17:56;52737.56;;;-145.42;100.00
49367;BME280;35245;52.026;8.540;2024-03-23T07:20:22;52684.03;;;-145.42;100.00
49367;BME280;35245;52.026;8.540;2024-03-23T07:22:49;52469.88;;;-145.42;100.00
49367;BME280;35245;52.026;8.540;2024-03-23T07:25:15;52416.34;;;-145.42;100.00
49367;BME280;35245;52.026;8.540;2024-03-23T07:27:42;52525.41;;;-145.42;100.00
49367;BME280;35245;52.026;8.540;2024-03-23T07:30:11;52319.19;;;-145.42;100.00
49367;BME280;35245;52.026;8.540;2024-03-23T07:32:38;52313.22;;;-145.42;100.00
49367;BME280;35245;52.026;8.540;2024-03-23T07:35:05;52269.59;;;-145.42;100.00
49367;BME280;35245;52.026;8.540;2024-03-23T07:37:32;52327.09;;;-145.42;100.00
49367;BME280;35245;52.026;8.540;2024-03-23T07:39:58;52321.16;;;-145.42;100.00
49367;BME280;35245;52.026;8.540;2024-03-23T07:42:25;51930.56;;;-145.42;100.00
49367;BME280;35245;52.026;8.540;2024-03-23T07:44:52;52033.66;;;-145.42;100.00
49367;BME280;35245;52.026;8.540;2024-03-23T07:47:24;52045.56;;;-145.42;100.00
49367;BME280;35245;52.026;8.540;2024-03-23T07:49:50;52003.91;;;-145.42;100.00
49367;BME280;35245;52.026;8.540;2024-03-23T07:52:17;51742.22;;;-145.42;100.00
49367;BME280;35245;52.026;8.540;2024-03-23T07:54:43;51902.78;;;-145.42;100.00
49367;BME280;35245;52.026;8.540;2024-03-23T07:57:10;51944.44;;;-145.42;100.00
49367;BME280;35245;52.026;8.540;2024-03-23T07:59:36;51997.97;;;-145.42;100.00
49367;BME280;35245;52.026;8.540;2024-03-23T08:02:04;51932.53;;;-145.42;100.00
49367;BME280;35245;52.026;8.540;2024-03-23T08:04:32;51829.44;;;-145.42;100.00
49367;BME280;35245;52.026;8.540;2024-03-23T08:06:59;51990.03;;;-145.42;100.00
49367;BME280;35245;52.026;8.540;2024-03-23T08:09:25;51980.13;;;-145.42;100.00
49367;BME280;35245;52.026;8.540;2024-03-23T08:11:52;51805.66;;;-145.42;100.00
49367;BME280;35245;52.026;8.540;2024-03-23T08:14:18;51779.88;;;-145.42;100.00
49367;BME280;35245;52.026;8.540;2024-03-23T08:16:46;51641.09;;;-145.42;100.00
49367;BME280;35245;52.026;8.540;2024-03-23T08:19:15;51658.94;;;-145.42;100.00
49367;BME280;35245;52.026;8.540;2024-03-23T08:21:43;51625.22;;;-145.42;100.00
49367;BME280;35245;52.026;8.540;2024-03-23T08:24:10;51660.91;;;-145.42;100.00
49367;BME280;35245;52.026;8.540;2024-03-23T08:26:36;51839.34;;;-145.42;100.00
49367;BME280;35245;52.026;8.540;2024-03-23T08:29:04;51928.56;;;-145.42;100.00
49367;BME280;35245;52.026;8.540;2024-03-23T08:31:30;51968.22;;;-145.42;100.00
49367;BME280;35245;52.026;8.540;2024-03-23T08:33:57;51670.84;;;-145.42;100.00
49367;BME280;35245;52.026;8.540;2024-03-23T08:36:24;51744.19;;;-145.42;100.00
49367;BME280;35245;52.026;8.540;2024-03-23T08:38:52;51639.13;;;-145.42;100.00
49367;BME280;35245;52.026;8.540;2024-03-23T08:41:19;51629.19;;;-145.42;100.00
49367;BME280;35245;52.026;8.540;2024-03-23T08:43:46;51407.16;;;-145.42;100.00
49367;BME280;35245;52.026;8.540;2024-03-23T08:46:14;51397.25;;;-145.42;100.00
49367;BME280;35245;52.026;8.540;2024-03-23T08:48:43;51415.09;;;-145.42;100.00
49367;BME280;35245;52.026;8.540;2024-03-23T08:51:12;51321.91;;;-145.42;100.00
49367;BME280;35245;52.026;8.540;2024-03-23T08:53:40;51385.34;;;-145.42;100.00
49367;BME280;35245;52.026;8.540;2024-03-23T08:56:09;51266.41;;;-145.42;100.00
49367;BME280;35245;52.026;8.540;2024-03-23T08:58:37;51250.56;;;-145.42;100.00
49367;BME280;35245;52.026;8.540;2024-03-23T09:01:08;51212.91;;;-145.42;100.00
49367;BME280;35245;52.026;8.540;2024-03-23T09:03:35;51199.03;;;-145.42;100.00
49367;BME280;35245;52.026;8.540;2024-03-23T09:06:07;51206.94;;;-145.42;100.00
49367;BME280;35245;52.026;8.540;2024-03-23T09:08:34;51153.44;;;-145.42;100.00
49367;BME280;35245;52.026;8.540;2024-03-23T09:11:04;51097.91;;;-145.42;100.00
49367;BME280;35245;52.026;8.540;2024-03-23T09:13:34;51135.59;;;-145.42;100.00
49367;BME280;35245;52.026;8.540;2024-03-23T09:16:03;51161.34;;;-145.42;100.00
49367;BME280;35245;52.026;8.540;2024-03-23T09:18:32;51139.56;;;-145.42;100.00
49367;BME280;35245;52.026;8.540;2024-03-23T09:20:59;51359.59;;;-145.42;100.00
49367;BME280;35245;52.026;8.540;2024-03-23T09:23:26;51345.72;;;-145.42;100.00
49367;BME280;35245;52.026;8.540;2024-03-23T09:25:52;51312.00;;;-145.42;100.00
49367;BME280;35245;52.026;8.540;2024-03-23T09:28:19;51355.63;;;-145.42;100.00
49367;BME280;35245;52.026;8.540;2024-03-23T09:30:47;51323.91;;;-145.42;100.00
49367;BME280;35245;52.026;8.540;2024-03-23T09:33:14;51323.91;;;-145.42;100.00
49367;BME280;35245;52.026;8.540;2024-03-23T09:35:43;51296.16;;;-145.42;100.00
49367;BME280;35245;52.026;8.540;2024-03-23T09:38:11;51278.31;;;-145.42;100.00
49367;BME280;35245;52.026;8.540;2024-03-23T09:40:41;52937.88;;;-145.42;100.00
49367;BME280;35245;52.026;8.540;2024-03-23T09:43:08;51999.94;;;-145.42;100.00
49367;BME280;35245;52.026;8.540;2024-03-23T09:45:39;51319.94;;;-145.42;100.00
49367;BME280;35245;52.026;8.540;2024-03-23T09:48:08;51179.19;;;-145.42;100.00
49367;BME280;35245;52.026;8.540;2024-03-23T09:50:37;51159.38;;;-145.42;100.00
49367;BME280;35245;52.026;8.540;2024-03-23T09:53:05;51141.53;;;-145.42;100.00
49367;BME280;35245;52.026;8.540;2024-03-23T09:55:32;51056.28;;;-145.42;100.00
49367;BME280;35245;52.026;8.540;2024-03-23T09:58:00;50998.81;;;-145.42;100.00
49367;BME280;35245;52.026;8.540;2024-03-23T10:00:26;50998.81;;;-145.42;100.00
49367;BME280;35245;52.026;8.540;2024-03-23T10:02:55;50988.91;;;-145.42;100.00
49367;BME280;35245;52.026;8.540;2024-03-23T10:05:23;50990.88;;;-145.42;100.00
49367;BME280;35245;52.026;8.540;2024-03-23T10:07:50;50931.41;;;-145.42;100.00
49367;BME280;35245;52.026;8.540;2024-03-23T10:10:17;50927.44;;;-145.42;100.00
49367;BME280;35245;52.026;8.540;2024-03-23T10:12:45;50923.50;;;-145.42;100.00
49367;BME280;35245;52.026;8.540;2024-03-23T10:15:20;50959.16;;;-145.42;100.00
49367;BME280;35245;52.026;8.540;2024-03-23T10:17:47;50931.41;;;-145.42;100.00
49367;BME280;35245;52.026;8.540;2024-03-23T10:20:19;50913.56;;;-145.42;100.00
49367;BME280;35245;52.026;8.540;2024-03-23T10:22:49;50907.63;;;-145.42;100.00
49367;BME280;35245;52.026;8.540;2024-03-23T10:25:16;50899.69;;;-145.42;100.00
49367;BME280;35245;52.026;8.540;2024-03-23T10:27:43;50873.94;;;-145.42;100.00
49367;BME280;35245;52.026;8.540;2024-03-23T10:30:10;50931.41;;;-145.42;100.00
49367;BME280;35245;52.026;8.540;2024-03-23T10:32:38;50921.50;;;-145.42;100.00
49367;BME280;35245;52.026;8.540;2024-03-23T10:35:15;50941.31;;;-145.42;100.00
49367;BME280;35245;52.026;8.540;2024-03-23T10:37:44;50943.31;;;-145.42;100.00
49367;BME280;35245;52.026;8.540;2024-03-23T10:40:13;50947.28;;;-145.42;100.00
49367;BME280;35245;52.026;8.540;2024-03-23T10:42:40;50921.50;;;-145.42;100.00
49367;BME280;35245;52.026;8.540;2024-03-23T10:45:08;50895.75;;;-145.42;100.00
49367;BME280;35245;52.026;8.540;2024-03-23T10:47:37;50891.78;;;-145.42;100.00
49367;BME280;35245;52.026;8.540;2024-03-23T10:50:04;50911.59;;;-145.42;100.00
49367;BME280;35245;52.026;8.540;2024-03-23T10:52:32;50905.66;;;-145.42;100.00
49367;BME280;35245;52.026;8.540;2024-03-23T10:54:59;50923.50;;;-145.42;100.00
49367;BME280;35245;52.026;8.540;2024-03-23T10:57:34;50913.56;;;-145.42;100.00
49367;BME280;35245;52.026;8.540;2024-03-23T11:00:04;50961.16;;;-145.42;100.00
49367;BME280;35245;52.026;8.540;2024-03-23T11:02:32;50929.44;;;-145.42;100.00
49367;BME280;35245;52.026;8.540;2024-03-23T11:04:58;50945.28;;;-145.42;100.00
49367;BME280;35245;52.026;8.540;2024-03-23T11:07:32;50897.72;;;-145.42;100.00
49367;BME280;35245;52.026;8.540;2024-03-23T11:09:59;50911.59;;;-145.42;100.00
49367;BME280;35245;52.026;8.540;2024-03-23T11:12:30;50889.78;;;-145.42;100.00
49367;BME280;35245;52.026;8.540;2024-03-23T11:15:01;50895.75;;;-145.42;100.00
49367;BME280;35245;52.026;8.540;2024-03-23T11:17:29;50891.78;;;-145.42;100.00
49367;BME280;35245;52.026;8.540;2024-03-23T11:19:57;50911.59;;;-145.42;100.00
49367;BME280;35245;52.026;8.540;2024-03-23T11:22:42;50852.13;;;-145.42;99.37
49367;BME280;35245;52.026;8.540;2024-03-23T11:25:16;50897.72;;;-145.42;100.00
49367;BME280;35245;52.026;8.540;2024-03-23T11:27:45;50856.09;;;-145.42;95.09
49367;BME280;35245;52.026;8.540;2024-03-23T11:30:14;50994.84;;;-145.42;100.00
49367;BME280;35245;52.026;8.540;2024-03-23T11:32:42;50961.16;;;-145.42;100.00
49367;BME280;35245;52.026;8.540;2024-03-23T11:35:08;50980.97;;;-145.42;100.00
49367;BME280;35245;52.026;8.540;2024-03-23T11:37:37;50939.34;;;-145.42;100.00
49367;BME280;35245;52.026;8.540;2024-03-23T11:40:20;50903.66;;;-145.42;100.00
49367;BME280;35245;52.026;8.540;2024-03-23T11:42:55;50915.56;;;-145.42;100.00
49367;BME280;35245;52.026;8.540;2024-03-23T11:45:22;50915.56;;;-145.42;100.00
49367;BME280;35245;52.026;8.540;2024-03-23T11:48:01;50945.28;;;-145.42;100.00
49367;BME280;35245;52.026;8.540;2024-03-23T11:50:27;50883.84;;;-145.42;100.00
49367;BME280;35245;52.026;8.540;2024-03-23T11:53:16;50893.75;;;-145.42;100.00
49367;BME280;35245;52.026;8.540;2024-03-23T11:55:46;50961.16;;;-145.42;100.00
49367;BME280;35245;52.026;8.540;2024-03-23T11:58:16;50905.66;;;-145.42;100.00
49367;BME280;35245;52.026;8.540;2024-03-23T12:00:43;50850.16;;;-145.42;81.76
49367;BME280;35245;52.026;8.540;2024-03-23T12:03:16;50875.91;;;-145.42;92.08
49367;BME280;35245;52.026;8.540;2024-03-23T12:05:48;50871.94;;;-145.42;93.99
49367;BME280;35245;52.026;8.540;2024-03-23T12:08:21;50869.97;;;-145.42;93.52
49367;BME280;35245;52.026;8.540;2024-03-23T12:10:50;50856.09;;;-145.42;94.87
49367;BME280;35245;52.026;8.540;2024-03-23T12:13:20;50889.78;;;-145.42;91.08
49367;BME280;35245;52.026;8.540;2024-03-23T12:15:49;50864.03;;;-145.42;91.86
49367;BME280;35245;52.026;8.540;2024-03-23T12:18:17;50848.16;;;-145.42;95.26
49367;BME280;35245;52.026;8.540;2024-03-23T12:20:43;50937.38;;;-145.42;100.00
49367;BME280;35245;52.026;8.540;2024-03-23T12:23:12;50957.19;;;-145.42;100.00
49367;BME280;35245;52.026;8.540;2024-03-23T12:25:39;50919.53;;;-145.42;100.00
49367;BME280;35245;52.026;8.540;2024-03-23T12:28:07;50915.56;;;-145.42;100.00
49367;BME280;35245;52.026;8.540;2024-03-23T12:30:39;50931.41;;;-145.42;100.00
49367;BME280;35245;52.026;8.540;2024-03-23T12:33:07;50921.50;;;-145.42;100.00
49367;BME280;35245;52.026;8.540;2024-03-23T12:35:33;50905.66;;;-145.42;100.00
49367;BME280;35245;52.026;8.540;2024-03-23T12:38:01;50866.00;;;-145.42;100.00
49367;BME280;35245;52.026;8.540;2024-03-23T12:40:27;50816.47;;;-145.42;98.60
49367;BME280;35245;52.026;8.540;2024-03-23T12:42:54;50800.59;;;-145.42;78.68
49367;BME280;35245;52.026;8.540;2024-03-23T12:45:22;50788.72;;;-145.42;85.68
49367;BME280;35245;52.026;8.540;2024-03-23T12:47:51;50832.31;;;-145.42;85.35
49367;BME280;35245;52.026;8.540;2024-03-23T12:50:19;50814.47;;;-145.42;88.54
49367;BME280;35245;52.026;8.540;2024-03-23T12:52:47;50818.44;;;-145.42;84.78
49367;BME280;35245;52.026;8.540;2024-03-23T12:55:13;50780.78;;;-145.42;71.36
49367;BME280;35245;52.026;8.540;2024-03-23T12:57:40;50822.41;;;-145.42;62.63
49367;BME280;35245;52.026;8.540;2024-03-23T13:00:07;50871.94;;;-145.42;57.40
49367;BME280;35245;52.026;8.540;2024-03-23T13:02:37;50881.88;;;-145.42;50.98
49367;BME280;35245;52.026;8.540;2024-03-23T13:05:07;50868.00;;;-145.42;46.11
49367;BME280;35245;52.026;8.540;2024-03-23T13:07:35;50961.16;;;-145.42;42.68
49367;BME280;35245;52.026;8.540;2024-03-23T13:10:01;50933.41;;;-145.42;39.78
49367;BME280;35245;52.026;8.540;2024-03-23T13:12:28;50869.97;;;-145.42;41.39
49367;BME280;35245;52.026;8.540;2024-03-23T13:14:54;50889.78;;;-145.42;40.96
49367;BME280;35245;52.026;8.540;2024-03-23T13:17:21;50820.41;;;-145.42;44.32
49367;BME280;35245;52.026;8.540;2024-03-23T13:19:47;50858.06;;;-145.42;45.95
49367;BME280;35245;52.026;8.540;2024-03-23T13:22:16;50848.16;;;-145.42;52.43
49367;BME280;35245;52.026;8.540;2024-03-23T13:24:42;50832.31;;;-145.42;55.25